AirNav   ATP
 
 436 users online  

02C Capitol Airport
Brookfield, Wisconsin, USA

GOING TO BROOKFIELD?


FAA INFORMATION EFFECTIVE 16 AUGUST 2018

Location

FAA Identifier: 02C
Lat/Long: 43-05-22.2850N / 088-10-44.2500W
43-05.371417N / 088-10.737500W
43.0895236 / -88.1789583
(estimated)
Elevation: 842.9 ft. / 257 m (estimated)
Variation: 01W (1985)
From city: 3 miles E of BROOKFIELD, WI
Time zone: UTC -5 (UTC -6 during Standard Time)
Zip code: 53072

Airport Operations

Airport use: Open to the public
Activation date: 05/1948
Control tower: no
ARTCC: CHICAGO CENTER
FSS: GREEN BAY FLIGHT SERVICE STATION
NOTAMs facility: GRB (NOTAM-D service available)
Attendance: APR-OCT 0800-DUSK, NOV-MAR 0800-1800
Wind indicator: lighted
Segmented circle: yes
Lights: ACTVT VASI RY 03/21; MIRL RY 03/21 - CTAF.
Beacon: white-green (lighted land airport)
Operates sunset to sunrise.

Airport Communications

CTAF/UNICOM: 122.7
WX AWOS-3 at UES (4 nm SW): 118.875 (262-521-5226)
WX AWOS-3 at MWC (6 nm E): PHONE 414-461-2954
WX ASOS at MKE (15 nm SE): PHONE 414-489-2168
WX AWOS-3PT at 57C (19 nm SW): 118.125 (262-642-1845)

Nearby radio navigation aids

VOR radial/distance  VOR name  Freq  Var
BAEr108/4.9BADGER VOR/DME116.4002E
LJTr261/6.3TIMMERMAN VOR/DME112.5002W
BJBr188/(20.1)WEST BEND VOR109.8001W
BUUr014/24.6BURBUN VOR/DME114.5001W

 
NDB name  Hdg/Dist  Freq  Var  ID
ROCK RIVER103/24.437101WRYV .-. -.-- ...-
LAKE LAWN040/29.740402WLVV .-.. ...- ...-
JUNEAU133/30.634401WUNU ..- -. ..-

Airport Services

Fuel available: 100LL MOGAS
Parking: hangars and tiedowns
Airframe service: NONE
Powerplant service: NONE
Bottled oxygen: NONE
Bulk oxygen: NONE

Runway Information

Runway 3/21

Dimensions: 3010 x 44 ft. / 917 x 13 m
Surface: asphalt, in fair condition
Runway edge lights: non-standard
NSTD MIRL; RY 03 FIRST 500 FT UNLGTD. RY 03/21 MIRL OTS INDEFLY.
Gradient: SW
RUNWAY 3  RUNWAY 21
Latitude: 43-05.133167N43-05.609667N
Longitude: 088-10.830167W088-10.644833W
Elevation: 842.9 ft.827.2 ft.
Gradient: 0.5% UP
Traffic pattern: leftleft
Runway heading: 017 magnetic, 016 true197 magnetic, 196 true
Displaced threshold: 1396 ft.695 ft.
Markings: basic, in fair conditionbasic, in fair condition
Visual slope indicator: tri-color VASI on lefttri-color VASI on left
Runway end identifier lights: noyes
NSTD REIL; STROBES MOUNTED ON STD EDGE LIGHTING POLES.
Obstructions: 76 ft. tree, 200 ft. from runway, 125 ft. left of centerline
RY 03 APCH RATIO 21:1 AT DSPLCD THLD.
86 ft. trees, 1210 ft. from runway, 200 ft. left of centerline, 11:1 slope to clear
RY 21 APCH RATIO 22:1 TO DSPLCD THLD.

Runway 9/27

Dimensions: 3395 x 100 ft. / 1035 x 30 m
Surface: turf, in fair condition
Runway edge markings: RY 09 27 & RY 18/36 ENDS MARKED WITH ORANGE & WHITE A-FRAMES & YELLOW CONES.
RUNWAY 9  RUNWAY 27
Traffic pattern: leftleft
Markings: nonenone
Runway end identifier lights: nono
Obstructions: 55 ft. tree, 400 ft. from runway, 150 ft. right of centerline, 7:1 slope to clear82 ft. trees, 1400 ft. from runway, 17:1 slope to clear

Runway 18/36

Dimensions: 1600 x 80 ft. / 488 x 24 m
Surface: turf, in fair condition
RUNWAY 18  RUNWAY 36
Traffic pattern: leftleft
Markings: nonenone
Runway end identifier lights: nono
Obstructions: 6 ft. brush76 ft. tree, 160 ft. from runway, 120 ft. left of centerline, 2:1 slope to clear

Airport Ownership and Management from official FAA records

Ownership: Privately-owned
Owner: WISCONSIN AVIATION INVESTMENTS LLC
4800 N. PINECREST DRIVE
CHENEQUA, WI 53058
Phone 262-391-0343
Manager: MATT BYRNE
21500 W GUMINA DR
PEWAUKEE, WI 53072
Phone 262-781-4213
ADDITIONAL PHONE NUMBER: 414-406-3119

Airport Operational Statistics

Aircraft based on the field: 103
Single engine airplanes: 92
Multi engine airplanes: 1
Helicopters: 5
Ultralights: 5
    
Aircraft operations: avg 36/day *
61% local general aviation
38% transient general aviation
<1% military
* for 12-month period ending 30 August 2016

Additional Remarks

RYS 03 & 36 ACFT OPNS CANNOT SEE RY 27 ACFT OPNS.
RYS 09/27 & 18/36 NOT SANDED OR PLOWED. CONFIRM CONDS & SNOW REMOVAL FOR RY 03/21 WITH AMGR 262-781-4213.
RYS 09/27 & 18/36 OPEN FOR SKI EQUIPPED ACFT DEC 1 THRU APR 15.

Instrument Procedures

There are no published instrument procedures at 02C.

Some nearby airports with instrument procedures:

KUES - Waukesha County Airport (4 nm SW)
KMWC - Lawrence J Timmerman Airport (6 nm E)
KMKE - General Mitchell International Airport (15 nm SE)
KHXF - Hartford Municipal Airport (18 nm NW)
57C - East Troy Municipal Airport (19 nm SW)
 
Loc | Ops | Rwys | IFR | FBO | Links
Com | Nav | Svcs | Stats | Notes

General Mitchell International Airport
 
Area around 02C (Capitol Airport)
 
Road maps at: MapQuest Bing Google
 
Aerial photo
WARNING: Photo may not be current or correct
Aerial photo of 02C (Capitol Airport)
Photo by Amy Gesch
Taken mid October 2005

Do you have a better or more recent aerial photo of Capitol Airport that you would like to share? If so, please send us your photo.

 
Sectional chart

 
Airport distance calculator
Flying to Capitol Airport? Find the distance to fly.

From to 02C

Sunrise and sunset
Times for 18-Aug-2018
 Local
(UTC-5)
 Zulu
(UTC)
Morning civil twilight05:3210:32
Sunrise06:0311:03
Sunset19:5000:50
Evening civil twilight20:2101:21

Current date and time
Zulu (UTC)  18-Aug-2018 07:05:50
Local (UTC-5)  18-Aug-2018 02:05:50
 
METAR
KUES 
5nm SE 
180655Z AUTO 00000KT 5SM BR CLR 17/17 A3005 RMK AO2
KMWC 
7nm E 
180655Z AUTO 00000KT 7SM CLR 18/16 A3004 RMK AO2
KMKE 
15nm SE 
180652Z 33004KT 7SM BKN075 22/20 A3002 RMK AO2 SLP162 T02170200
K57C 
19nm SW 
180655Z AUTO 00000KT 4SM BR CLR 18/18 A3003 RMK AO2 T01760175
KETB 
20nm N 
180655Z AUTO 00000KT 1/2SM FG BKN001 16/16 A3005 RMK AO2
TAF
KUES 
5nm SE 
180520Z 1806/1906 00000KT P6SM SKC FM180800 VRB03KT 4SM BR SKC FM180900 00000KT 2SM BR SKC FM181200 VRB04KT P6SM FEW200 FM181500 02006KT P6SM FEW045 FM190000 VRB04KT P6SM FEW150
KMKE 
15nm SE 
180520Z 1806/1912 36003KT P6SM FEW250 FM180700 VRB04KT 6SM BR FEW020 TEMPO 1808/1811 2SM BR FM181400 02008KT P6SM FEW045 FM190000 03005KT P6SM FEW200 FM191000 00000KT 3SM BR FEW080
NOTAMs
Click for the latest NOTAMs
NOTAMs are issued by the DoD/FAA and will open in a separate window not controlled by AirNav.

 

 
 

FBO, Fuel Providers, and Aircraft Ground Support

  
 Business Name 
 
 Contact 
 
 Services / Description 
 
Fuel Prices
 
Comments
  
Brookfield Aero 262-781-4213
[web site]
[email]
Airport management, Aviation fuel, Aircraft parking (ramp or tiedown), Hangar leasing / sales, Passenger terminal and lounge, Flight training, Aircraft rental, ...

More info about Brookfield Aero
independent
100LL Mogas
AS $4.40 $3.30 
 Updated 10-Aug-2018
 
   1 read write
AS=Assisted/Self Service
Update Fuel Prices
 

Would you like to see your business listed on this page?

 If your business provides an interesting product or service to pilots, flight crews, aircraft, or users of the Capitol Airport, you should consider listing it here.  To start the listing process, click on the button below
 
Add a business
 

Other Pages about Capitol Airport

www.capitoldriveairport.com
Page from the Wisconsin airport directory (PDF)
 
Update a link
 
Copyright © AirNav, LLC. All rights reserved. Privacy Policy  Contact